Hlavní strana
METAR-TAF:

METAR-TAF

Letiště :

Letiště Tbilisi

Tbilisi, Gruzie

zeměpisná šířka: 41-40-09N, zeměpisná délka: 044-57-17E, výška: 495 m

Aktuální stav počasí

Zpráva byla vytvořena před 23 minutami, v 03:30 UTC
vítr z různých směrů 2 kt
Teplota 1°C
Vlhkost vzduchu 80%
Tlak 1031 hPa
Viditelnost 10 km a více
Žádná oblačnost pod 1500 m, nevyskytují se cumulonimby.

METAR: UGTB 180330Z VRB02KT CAVOK 01/M02 Q1031 NOSIG

Čas: 07:53 (03:53 UTC)

Předpověď počasí

Zpráva byla vytvořena před 4 hodinami a 53 minutami, v 23:00 UTC
Předpověď platná od 18 v 00 UTC do 18 v 24 UTC
vítr z různých směrů 2 kt
Viditelnost 10 km a více
Žádná oblačnost pod 1500 m, nevyskytují se cumulonimby.
Dočasný
od 18 v 09 UTC do 18 v 16 UTC
Jihojihovýchodní vítr 10 kt

TAF: UGTB 172300Z 1800/1824 VRB02KT CAVOK TX11/1811Z TNM01/1803Z TEMPO 1809/1816 15010KT

Stav a předpovědi počasí z více než 4 000 letišť (zprávy METAR a TAF).

Červené a žluté tečky na mapě představují dostupné meteorologické stanice.

Když kurzor umístíte na tečku, zobrazí se název stanice.

Pak kliknutím zobrazíte stav a předpověď počasí.

Chcete-li změnit mapu, kliknutím na zelené tlačítko se znaménkem +mapu přiblížíte, kliknutím na zelené tlačítko se znaménkem – mapu oddálíte a kliknutím na zelené šipky přejdete na sousední mapy.


METAR-TAF: